sensor_id;sensor_type;location;lat;lon;timestamp;P1;durP1;ratioP1;P2;durP2;ratioP2
47429;SDS011;33181;49.246;7.372;2023-04-03T00:01:38;7.03;;;5.50;;
47429;SDS011;33181;49.246;7.372;2023-04-03T00:04:04;6.40;;;5.40;;
47429;SDS011;33181;49.246;7.372;2023-04-03T00:06:30;8.43;;;5.70;;
47429;SDS011;33181;49.246;7.372;2023-04-03T00:08:57;8.70;;;5.50;;
47429;SDS011;33181;49.246;7.372;2023-04-03T00:11:23;7.40;;;6.10;;
47429;SDS011;33181;49.246;7.372;2023-04-03T00:13:50;8.30;;;5.57;;
47429;SDS011;33181;49.246;7.372;2023-04-03T00:16:15;8.43;;;5.90;;
47429;SDS011;33181;49.246;7.372;2023-04-03T00:18:41;6.90;;;6.07;;
47429;SDS011;33181;49.246;7.372;2023-04-03T00:21:07;7.00;;;6.00;;
47429;SDS011;33181;49.246;7.372;2023-04-03T00:23:36;7.10;;;5.63;;
47429;SDS011;33181;49.246;7.372;2023-04-03T00:26:02;8.23;;;6.07;;
47429;SDS011;33181;49.246;7.372;2023-04-03T00:28:28;8.90;;;6.47;;
47429;SDS011;33181;49.246;7.372;2023-04-03T00:30:54;7.73;;;5.60;;
47429;SDS011;33181;49.246;7.372;2023-04-03T00:33:20;7.20;;;6.10;;
47429;SDS011;33181;49.246;7.372;2023-04-03T00:35:49;7.03;;;5.93;;
47429;SDS011;33181;49.246;7.372;2023-04-03T00:38:16;7.70;;;5.87;;
47429;SDS011;33181;49.246;7.372;2023-04-03T00:40:42;6.60;;;5.63;;
47429;SDS011;33181;49.246;7.372;2023-04-03T00:43:12;7.77;;;6.00;;
47429;SDS011;33181;49.246;7.372;2023-04-03T00:45:52;9.87;;;6.10;;
47429;SDS011;33181;49.246;7.372;2023-04-03T00:48:21;7.50;;;5.40;;
47429;SDS011;33181;49.246;7.372;2023-04-03T00:50:54;7.40;;;5.73;;
47429;SDS011;33181;49.246;7.372;2023-04-03T00:53:26;7.80;;;5.83;;
47429;SDS011;33181;49.246;7.372;2023-04-03T00:55:57;10.97;;;5.80;;
47429;SDS011;33181;49.246;7.372;2023-04-03T00:58:36;8.97;;;5.90;;
47429;SDS011;33181;49.246;7.372;2023-04-03T01:01:08;7.83;;;5.60;;
47429;SDS011;33181;49.246;7.372;2023-04-03T01:03:40;8.20;;;5.90;;
47429;SDS011;33181;49.246;7.372;2023-04-03T01:06:06;11.03;;;6.03;;
47429;SDS011;33181;49.246;7.372;2023-04-03T01:08:32;6.97;;;6.07;;
47429;SDS011;33181;49.246;7.372;2023-04-03T01:10:59;7.57;;;5.83;;
47429;SDS011;33181;49.246;7.372;2023-04-03T01:13:27;7.00;;;5.70;;
47429;SDS011;33181;49.246;7.372;2023-04-03T01:16:00;6.87;;;5.80;;
47429;SDS011;33181;49.246;7.372;2023-04-03T01:18:28;9.33;;;6.13;;
47429;SDS011;33181;49.246;7.372;2023-04-03T01:21:04;7.13;;;6.10;;
47429;SDS011;33181;49.246;7.372;2023-04-03T01:26:41;9.50;;;5.37;;
47429;SDS011;33181;49.246;7.372;2023-04-03T01:29:09;7.60;;;5.70;;
47429;SDS011;33181;49.246;7.372;2023-04-03T01:31:46;10.00;;;6.00;;
47429;SDS011;33181;49.246;7.372;2023-04-03T01:34:24;8.63;;;6.30;;
47429;SDS011;33181;49.246;7.372;2023-04-03T01:36:50;7.17;;;5.70;;
47429;SDS011;33181;49.246;7.372;2023-04-03T01:39:17;8.27;;;6.00;;
47429;SDS011;33181;49.246;7.372;2023-04-03T01:41:43;5.97;;;5.37;;
47429;SDS011;33181;49.246;7.372;2023-04-03T01:44:09;9.37;;;5.27;;
47429;SDS011;33181;49.246;7.372;2023-04-03T01:46:36;6.60;;;4.90;;
47429;SDS011;33181;49.246;7.372;2023-04-03T01:49:02;6.50;;;5.47;;
47429;SDS011;33181;49.246;7.372;2023-04-03T01:51:29;7.07;;;5.70;;
47429;SDS011;33181;49.246;7.372;2023-04-03T01:53:55;7.23;;;5.50;;
47429;SDS011;33181;49.246;7.372;2023-04-03T01:56:21;5.47;;;4.80;;
47429;SDS011;33181;49.246;7.372;2023-04-03T01:58:47;6.70;;;5.60;;
47429;SDS011;33181;49.246;7.372;2023-04-03T02:01:12;9.30;;;5.77;;
47429;SDS011;33181;49.246;7.372;2023-04-03T02:03:38;6.17;;;5.40;;
47429;SDS011;33181;49.246;7.372;2023-04-03T02:06:04;6.93;;;5.80;;
47429;SDS011;33181;49.246;7.372;2023-04-03T02:08:30;6.03;;;5.40;;
47429;SDS011;33181;49.246;7.372;2023-04-03T02:10:56;8.90;;;5.83;;
47429;SDS011;33181;49.246;7.372;2023-04-03T02:13:22;8.53;;;5.90;;
47429;SDS011;33181;49.246;7.372;2023-04-03T02:15:48;6.50;;;5.70;;
47429;SDS011;33181;49.246;7.372;2023-04-03T02:18:14;6.70;;;5.97;;
47429;SDS011;33181;49.246;7.372;2023-04-03T02:20:40;9.03;;;6.10;;
47429;SDS011;33181;49.246;7.372;2023-04-03T02:23:05;6.20;;;5.50;;
47429;SDS011;33181;49.246;7.372;2023-04-03T02:25:31;6.33;;;5.03;;
47429;SDS011;33181;49.246;7.372;2023-04-03T02:27:58;6.70;;;5.37;;
47429;SDS011;33181;49.246;7.372;2023-04-03T02:30:24;6.97;;;5.70;;
47429;SDS011;33181;49.246;7.372;2023-04-03T02:32:53;8.27;;;6.20;;
47429;SDS011;33181;49.246;7.372;2023-04-03T02:35:19;6.33;;;5.47;;
47429;SDS011;33181;49.246;7.372;2023-04-03T02:37:45;6.43;;;5.63;;
47429;SDS011;33181;49.246;7.372;2023-04-03T02:40:11;8.93;;;5.70;;
47429;SDS011;33181;49.246;7.372;2023-04-03T02:42:37;7.13;;;5.30;;
47429;SDS011;33181;49.246;7.372;2023-04-03T02:45:03;6.90;;;5.90;;
47429;SDS011;33181;49.246;7.372;2023-04-03T02:47:29;7.10;;;5.73;;
47429;SDS011;33181;49.246;7.372;2023-04-03T02:49:55;8.37;;;6.27;;
47429;SDS011;33181;49.246;7.372;2023-04-03T02:52:21;7.37;;;5.73;;
47429;SDS011;33181;49.246;7.372;2023-04-03T02:54:46;6.63;;;5.80;;
47429;SDS011;33181;49.246;7.372;2023-04-03T02:57:12;7.63;;;6.33;;
47429;SDS011;33181;49.246;7.372;2023-04-03T02:59:38;6.97;;;5.90;;
47429;SDS011;33181;49.246;7.372;2023-04-03T03:02:05;7.10;;;6.30;;
47429;SDS011;33181;49.246;7.372;2023-04-03T03:04:35;6.80;;;5.73;;
47429;SDS011;33181;49.246;7.372;2023-04-03T03:07:01;7.10;;;5.80;;
47429;SDS011;33181;49.246;7.372;2023-04-03T03:09:28;8.27;;;5.90;;
47429;SDS011;33181;49.246;7.372;2023-04-03T03:11:54;9.23;;;6.43;;
47429;SDS011;33181;49.246;7.372;2023-04-03T03:14:21;7.60;;;6.27;;
47429;SDS011;33181;49.246;7.372;2023-04-03T03:16:48;9.10;;;6.53;;
47429;SDS011;33181;49.246;7.372;2023-04-03T03:19:14;7.73;;;6.30;;
47429;SDS011;33181;49.246;7.372;2023-04-03T03:21:40;9.20;;;6.07;;
47429;SDS011;33181;49.246;7.372;2023-04-03T03:24:06;9.83;;;5.97;;
47429;SDS011;33181;49.246;7.372;2023-04-03T03:26:32;8.57;;;5.83;;
47429;SDS011;33181;49.246;7.372;2023-04-03T03:28:57;7.53;;;5.83;;
47429;SDS011;33181;49.246;7.372;2023-04-03T03:31:23;8.43;;;6.37;;
47429;SDS011;33181;49.246;7.372;2023-04-03T03:33:49;6.80;;;5.70;;
47429;SDS011;33181;49.246;7.372;2023-04-03T03:36:15;9.67;;;6.27;;
47429;SDS011;33181;49.246;7.372;2023-04-03T03:38:40;6.83;;;6.10;;
47429;SDS011;33181;49.246;7.372;2023-04-03T03:41:06;7.47;;;5.70;;
47429;SDS011;33181;49.246;7.372;2023-04-03T03:43:32;7.53;;;6.13;;
47429;SDS011;33181;49.246;7.372;2023-04-03T03:45:58;9.00;;;6.40;;
47429;SDS011;33181;49.246;7.372;2023-04-03T03:48:23;9.33;;;6.63;;
47429;SDS011;33181;49.246;7.372;2023-04-03T03:50:50;8.43;;;6.00;;
47429;SDS011;33181;49.246;7.372;2023-04-03T03:53:16;7.03;;;5.73;;
47429;SDS011;33181;49.246;7.372;2023-04-03T03:55:42;7.33;;;5.97;;
47429;SDS011;33181;49.246;7.372;2023-04-03T03:58:07;8.00;;;5.70;;
47429;SDS011;33181;49.246;7.372;2023-04-03T04:00:33;8.77;;;6.83;;
47429;SDS011;33181;49.246;7.372;2023-04-03T04:02:59;11.37;;;6.60;;
47429;SDS011;33181;49.246;7.372;2023-04-03T04:05:25;11.47;;;6.80;;
47429;SDS011;33181;49.246;7.372;2023-04-03T04:07:51;9.27;;;6.67;;
47429;SDS011;33181;49.246;7.372;2023-04-03T04:10:17;9.07;;;6.87;;
47429;SDS011;33181;49.246;7.372;2023-04-03T04:12:43;8.90;;;6.00;;
47429;SDS011;33181;49.246;7.372;2023-04-03T04:15:09;10.80;;;7.27;;
47429;SDS011;33181;49.246;7.372;2023-04-03T04:17:35;8.20;;;6.60;;
47429;SDS011;33181;49.246;7.372;2023-04-03T04:20:02;9.17;;;6.70;;
47429;SDS011;33181;49.246;7.372;2023-04-03T04:22:29;11.80;;;6.73;;
47429;SDS011;33181;49.246;7.372;2023-04-03T04:24:55;12.03;;;6.33;;
47429;SDS011;33181;49.246;7.372;2023-04-03T04:27:21;10.63;;;6.70;;
47429;SDS011;33181;49.246;7.372;2023-04-03T04:29:47;7.50;;;6.70;;
47429;SDS011;33181;49.246;7.372;2023-04-03T04:32:12;9.57;;;6.60;;
47429;SDS011;33181;49.246;7.372;2023-04-03T04:34:38;10.70;;;6.20;;
47429;SDS011;33181;49.246;7.372;2023-04-03T04:37:04;7.70;;;6.00;;
47429;SDS011;33181;49.246;7.372;2023-04-03T04:39:30;9.00;;;6.33;;
47429;SDS011;33181;49.246;7.372;2023-04-03T04:41:56;8.20;;;6.57;;
47429;SDS011;33181;49.246;7.372;2023-04-03T04:44:21;8.00;;;6.23;;
47429;SDS011;33181;49.246;7.372;2023-04-03T04:46:47;8.47;;;6.40;;
47429;SDS011;33181;49.246;7.372;2023-04-03T04:49:13;8.70;;;6.23;;
47429;SDS011;33181;49.246;7.372;2023-04-03T04:51:39;9.90;;;6.20;;
47429;SDS011;33181;49.246;7.372;2023-04-03T04:54:04;8.90;;;6.13;;
47429;SDS011;33181;49.246;7.372;2023-04-03T04:56:30;8.00;;;6.30;;
47429;SDS011;33181;49.246;7.372;2023-04-03T04:58:56;8.57;;;5.90;;
47429;SDS011;33181;49.246;7.372;2023-04-03T05:01:22;6.20;;;5.60;;
47429;SDS011;33181;49.246;7.372;2023-04-03T05:03:47;8.80;;;6.80;;
47429;SDS011;33181;49.246;7.372;2023-04-03T05:06:13;7.00;;;5.83;;
47429;SDS011;33181;49.246;7.372;2023-04-03T05:08:39;7.07;;;5.57;;
47429;SDS011;33181;49.246;7.372;2023-04-03T05:11:05;10.70;;;6.17;;
47429;SDS011;33181;49.246;7.372;2023-04-03T05:13:31;8.30;;;5.50;;
47429;SDS011;33181;49.246;7.372;2023-04-03T05:15:56;7.90;;;5.70;;
47429;SDS011;33181;49.246;7.372;2023-04-03T05:18:22;7.40;;;5.83;;
47429;SDS011;33181;49.246;7.372;2023-04-03T05:20:48;9.63;;;6.10;;
47429;SDS011;33181;49.246;7.372;2023-04-03T05:23:15;9.87;;;5.90;;
47429;SDS011;33181;49.246;7.372;2023-04-03T05:25:41;6.57;;;5.87;;
47429;SDS011;33181;49.246;7.372;2023-04-03T05:28:10;8.40;;;6.13;;
47429;SDS011;33181;49.246;7.372;2023-04-03T05:30:36;7.50;;;6.03;;
47429;SDS011;33181;49.246;7.372;2023-04-03T05:33:02;8.47;;;5.70;;
47429;SDS011;33181;49.246;7.372;2023-04-03T05:35:28;11.70;;;6.07;;
47429;SDS011;33181;49.246;7.372;2023-04-03T05:37:54;7.53;;;5.30;;
47429;SDS011;33181;49.246;7.372;2023-04-03T05:40:19;5.67;;;4.77;;
47429;SDS011;33181;49.246;7.372;2023-04-03T05:42:45;6.80;;;4.90;;
47429;SDS011;33181;49.246;7.372;2023-04-03T05:45:11;5.83;;;4.53;;
47429;SDS011;33181;49.246;7.372;2023-04-03T05:47:37;7.07;;;4.47;;
47429;SDS011;33181;49.246;7.372;2023-04-03T05:50:03;6.17;;;4.33;;
47429;SDS011;33181;49.246;7.372;2023-04-03T05:52:30;7.60;;;4.83;;
47429;SDS011;33181;49.246;7.372;2023-04-03T05:55:05;5.83;;;4.60;;
47429;SDS011;33181;49.246;7.372;2023-04-03T05:57:32;6.50;;;4.80;;
47429;SDS011;33181;49.246;7.372;2023-04-03T05:59:57;6.47;;;4.93;;
47429;SDS011;33181;49.246;7.372;2023-04-03T06:02:24;5.93;;;4.40;;
47429;SDS011;33181;49.246;7.372;2023-04-03T06:04:53;6.93;;;4.47;;
47429;SDS011;33181;49.246;7.372;2023-04-03T06:07:20;6.50;;;4.40;;
47429;SDS011;33181;49.246;7.372;2023-04-03T06:09:48;4.30;;;3.90;;
47429;SDS011;33181;49.246;7.372;2023-04-03T06:12:16;6.73;;;4.63;;
47429;SDS011;33181;49.246;7.372;2023-04-03T06:14:42;5.73;;;4.17;;
47429;SDS011;33181;49.246;7.372;2023-04-03T06:17:08;7.60;;;3.87;;
47429;SDS011;33181;49.246;7.372;2023-04-03T06:19:35;5.37;;;4.00;;
47429;SDS011;33181;49.246;7.372;2023-04-03T06:22:01;4.37;;;3.97;;
47429;SDS011;33181;49.246;7.372;2023-04-03T06:24:28;6.90;;;4.43;;
47429;SDS011;33181;49.246;7.372;2023-04-03T06:26:55;5.60;;;4.20;;
47429;SDS011;33181;49.246;7.372;2023-04-03T06:29:23;6.10;;;4.37;;
47429;SDS011;33181;49.246;7.372;2023-04-03T06:31:49;6.57;;;4.80;;
47429;SDS011;33181;49.246;7.372;2023-04-03T06:34:16;5.73;;;4.47;;
47429;SDS011;33181;49.246;7.372;2023-04-03T06:36:43;6.60;;;4.93;;
47429;SDS011;33181;49.246;7.372;2023-04-03T06:39:15;8.87;;;5.37;;
47429;SDS011;33181;49.246;7.372;2023-04-03T06:41:53;5.30;;;4.40;;
47429;SDS011;33181;49.246;7.372;2023-04-03T06:44:19;6.23;;;4.60;;
47429;SDS011;33181;49.246;7.372;2023-04-03T06:46:45;7.50;;;4.73;;
47429;SDS011;33181;49.246;7.372;2023-04-03T06:49:11;4.87;;;4.20;;
47429;SDS011;33181;49.246;7.372;2023-04-03T06:51:38;5.57;;;3.80;;
47429;SDS011;33181;49.246;7.372;2023-04-03T06:54:04;5.10;;;4.00;;
47429;SDS011;33181;49.246;7.372;2023-04-03T06:56:31;4.63;;;3.90;;
47429;SDS011;33181;49.246;7.372;2023-04-03T06:58:57;8.00;;;4.03;;
47429;SDS011;33181;49.246;7.372;2023-04-03T07:01:24;4.63;;;4.17;;
47429;SDS011;33181;49.246;7.372;2023-04-03T07:03:52;4.33;;;3.73;;
47429;SDS011;33181;49.246;7.372;2023-04-03T07:06:20;4.87;;;3.80;;
47429;SDS011;33181;49.246;7.372;2023-04-03T07:08:47;5.07;;;4.40;;
47429;SDS011;33181;49.246;7.372;2023-04-03T07:11:16;4.60;;;4.10;;
47429;SDS011;33181;49.246;7.372;2023-04-03T07:13:41;5.27;;;4.30;;
47429;SDS011;33181;49.246;7.372;2023-04-03T07:16:08;4.53;;;3.90;;
47429;SDS011;33181;49.246;7.372;2023-04-03T07:18:34;9.93;;;4.13;;
47429;SDS011;33181;49.246;7.372;2023-04-03T07:21:00;5.63;;;4.07;;
47429;SDS011;33181;49.246;7.372;2023-04-03T07:23:27;5.33;;;4.03;;
47429;SDS011;33181;49.246;7.372;2023-04-03T07:25:53;4.93;;;3.73;;
47429;SDS011;33181;49.246;7.372;2023-04-03T07:28:20;4.90;;;3.97;;
47429;SDS011;33181;49.246;7.372;2023-04-03T07:30:50;5.20;;;3.87;;
47429;SDS011;33181;49.246;7.372;2023-04-03T07:33:19;6.33;;;4.27;;
47429;SDS011;33181;49.246;7.372;2023-04-03T07:35:48;7.13;;;4.20;;
47429;SDS011;33181;49.246;7.372;2023-04-03T07:38:14;8.30;;;4.20;;
47429;SDS011;33181;49.246;7.372;2023-04-03T07:40:45;6.97;;;4.90;;
47429;SDS011;33181;49.246;7.372;2023-04-03T07:43:16;5.83;;;4.40;;
47429;SDS011;33181;49.246;7.372;2023-04-03T07:45:43;7.10;;;4.43;;
47429;SDS011;33181;49.246;7.372;2023-04-03T07:48:10;6.20;;;4.17;;
47429;SDS011;33181;49.246;7.372;2023-04-03T07:50:37;11.70;;;4.90;;
47429;SDS011;33181;49.246;7.372;2023-04-03T07:53:05;8.67;;;4.40;;
47429;SDS011;33181;49.246;7.372;2023-04-03T07:55:32;7.47;;;3.90;;
47429;SDS011;33181;49.246;7.372;2023-04-03T07:57:58;7.97;;;4.50;;
47429;SDS011;33181;49.246;7.372;2023-04-03T08:00:24;8.50;;;4.03;;
47429;SDS011;33181;49.246;7.372;2023-04-03T08:02:50;5.80;;;4.73;;
47429;SDS011;33181;49.246;7.372;2023-04-03T08:05:19;7.20;;;5.10;;
47429;SDS011;33181;49.246;7.372;2023-04-03T08:07:46;9.17;;;4.93;;
47429;SDS011;33181;49.246;7.372;2023-04-03T08:10:13;6.80;;;4.70;;
47429;SDS011;33181;49.246;7.372;2023-04-03T08:12:40;7.03;;;4.73;;
47429;SDS011;33181;49.246;7.372;2023-04-03T08:15:07;6.20;;;4.40;;
47429;SDS011;33181;49.246;7.372;2023-04-03T08:17:34;5.57;;;4.20;;
47429;SDS011;33181;49.246;7.372;2023-04-03T08:20:00;10.60;;;4.53;;
47429;SDS011;33181;49.246;7.372;2023-04-03T08:22:26;5.13;;;4.00;;
47429;SDS011;33181;49.246;7.372;2023-04-03T08:24:52;8.10;;;4.00;;
47429;SDS011;33181;49.246;7.372;2023-04-03T08:27:17;6.03;;;4.23;;
47429;SDS011;33181;49.246;7.372;2023-04-03T08:29:43;6.03;;;4.00;;
47429;SDS011;33181;49.246;7.372;2023-04-03T08:32:09;5.07;;;3.80;;
47429;SDS011;33181;49.246;7.372;2023-04-03T08:34:35;5.17;;;3.90;;
47429;SDS011;33181;49.246;7.372;2023-04-03T08:37:04;4.73;;;3.53;;
47429;SDS011;33181;49.246;7.372;2023-04-03T08:39:36;4.23;;;3.30;;
47429;SDS011;33181;49.246;7.372;2023-04-03T08:42:03;8.20;;;4.23;;
47429;SDS011;33181;49.246;7.372;2023-04-03T08:47:47;5.43;;;3.80;;
47429;SDS011;33181;49.246;7.372;2023-04-03T08:50:32;4.57;;;3.70;;
47429;SDS011;33181;49.246;7.372;2023-04-03T08:53:05;8.77;;;3.83;;
47429;SDS011;33181;49.246;7.372;2023-04-03T08:55:38;3.83;;;3.10;;
47429;SDS011;33181;49.246;7.372;2023-04-03T08:58:12;5.27;;;3.70;;
47429;SDS011;33181;49.246;7.372;2023-04-03T09:00:44;9.17;;;3.73;;
47429;SDS011;33181;49.246;7.372;2023-04-03T09:03:17;4.60;;;3.20;;
47429;SDS011;33181;49.246;7.372;2023-04-03T09:08:27;6.43;;;3.77;;
47429;SDS011;33181;49.246;7.372;2023-04-03T09:14:01;6.67;;;3.27;;
47429;SDS011;33181;49.246;7.372;2023-04-03T09:25:10;4.63;;;3.40;;
47429;SDS011;33181;49.246;7.372;2023-04-03T09:27:50;4.33;;;3.23;;
47429;SDS011;33181;49.246;7.372;2023-04-03T09:30:24;4.33;;;3.23;;
47429;SDS011;33181;49.246;7.372;2023-04-03T09:32:53;4.00;;;3.43;;
47429;SDS011;33181;49.246;7.372;2023-04-03T09:35:26;3.93;;;2.90;;
47429;SDS011;33181;49.246;7.372;2023-04-03T09:43:30;5.30;;;3.00;;
47429;SDS011;33181;49.246;7.372;2023-04-03T09:49:02;5.13;;;3.20;;
47429;SDS011;33181;49.246;7.372;2023-04-03T09:51:30;4.27;;;3.40;;
47429;SDS011;33181;49.246;7.372;2023-04-03T09:53:57;4.77;;;3.23;;
47429;SDS011;33181;49.246;7.372;2023-04-03T09:56:25;6.13;;;3.20;;
47429;SDS011;33181;49.246;7.372;2023-04-03T10:01:28;5.90;;;3.67;;
47429;SDS011;33181;49.246;7.372;2023-04-03T10:06:29;4.30;;;2.90;;
47429;SDS011;33181;49.246;7.372;2023-04-03T10:09:02;4.63;;;3.17;;
47429;SDS011;33181;49.246;7.372;2023-04-03T10:11:31;6.60;;;3.03;;
47429;SDS011;33181;49.246;7.372;2023-04-03T10:13:58;4.63;;;3.50;;
47429;SDS011;33181;49.246;7.372;2023-04-03T10:16:46;3.93;;;3.13;;
47429;SDS011;33181;49.246;7.372;2023-04-03T10:19:41;4.90;;;3.30;;
47429;SDS011;33181;49.246;7.372;2023-04-03T10:29:20;5.43;;;3.27;;
47429;SDS011;33181;49.246;7.372;2023-04-03T10:55:00;6.53;;;3.87;;
47429;SDS011;33181;49.246;7.372;2023-04-03T10:57:52;5.60;;;4.00;;
47429;SDS011;33181;49.246;7.372;2023-04-03T11:00:29;6.77;;;4.03;;
47429;SDS011;33181;49.246;7.372;2023-04-03T11:03:30;6.23;;;4.20;;
47429;SDS011;33181;49.246;7.372;2023-04-03T11:06:05;4.70;;;3.70;;
47429;SDS011;33181;49.246;7.372;2023-04-03T11:08:45;5.57;;;3.60;;
47429;SDS011;33181;49.246;7.372;2023-04-03T11:11:35;6.53;;;4.10;;
47429;SDS011;33181;49.246;7.372;2023-04-03T11:14:14;4.00;;;3.60;;
47429;SDS011;33181;49.246;7.372;2023-04-03T11:17:04;4.40;;;3.50;;
47429;SDS011;33181;49.246;7.372;2023-04-03T11:19:49;5.30;;;3.30;;
47429;SDS011;33181;49.246;7.372;2023-04-03T11:25:22;4.93;;;3.37;;
47429;SDS011;33181;49.246;7.372;2023-04-03T11:27:54;7.00;;;4.70;;
47429;SDS011;33181;49.246;7.372;2023-04-03T11:36:26;4.60;;;3.90;;
47429;SDS011;33181;49.246;7.372;2023-04-03T11:38:57;5.30;;;3.70;;
47429;SDS011;33181;49.246;7.372;2023-04-03T11:41:50;5.53;;;3.47;;
47429;SDS011;33181;49.246;7.372;2023-04-03T11:44:34;5.10;;;3.60;;
47429;SDS011;33181;49.246;7.372;2023-04-03T11:47:03;4.40;;;3.30;;
47429;SDS011;33181;49.246;7.372;2023-04-03T11:55:35;7.40;;;4.00;;
47429;SDS011;33181;49.246;7.372;2023-04-03T12:13:43;5.87;;;3.60;;
47429;SDS011;33181;49.246;7.372;2023-04-03T12:16:33;4.27;;;3.10;;
47429;SDS011;33181;49.246;7.372;2023-04-03T12:22:18;5.53;;;3.27;;
47429;SDS011;33181;49.246;7.372;2023-04-03T12:24:50;3.93;;;2.93;;
47429;SDS011;33181;49.246;7.372;2023-04-03T12:27:20;6.10;;;3.40;;
47429;SDS011;33181;49.246;7.372;2023-04-03T12:46:33;4.87;;;3.33;;
47429;SDS011;33181;49.246;7.372;2023-04-03T12:49:26;7.30;;;3.60;;
47429;SDS011;33181;49.246;7.372;2023-04-03T12:53:05;6.43;;;3.40;;
47429;SDS011;33181;49.246;7.372;2023-04-03T12:55:15;5.43;;;3.73;;
47429;SDS011;33181;49.246;7.372;2023-04-03T12:57:43;7.23;;;3.10;;
47429;SDS011;33181;49.246;7.372;2023-04-03T13:00:30;4.50;;;3.50;;
47429;SDS011;33181;49.246;7.372;2023-04-03T13:03:02;8.40;;;3.47;;
47429;SDS011;33181;49.246;7.372;2023-04-03T13:05:31;3.97;;;3.40;;
47429;SDS011;33181;49.246;7.372;2023-04-03T13:08:02;6.00;;;3.90;;
47429;SDS011;33181;49.246;7.372;2023-04-03T13:10:42;4.90;;;3.70;;
47429;SDS011;33181;49.246;7.372;2023-04-03T13:13:29;7.80;;;3.40;;
47429;SDS011;33181;49.246;7.372;2023-04-03T13:15:55;6.40;;;3.10;;
47429;SDS011;33181;49.246;7.372;2023-04-03T13:18:23;4.37;;;3.40;;
47429;SDS011;33181;49.246;7.372;2023-04-03T13:21:18;5.60;;;3.50;;
47429;SDS011;33181;49.246;7.372;2023-04-03T13:23:46;6.10;;;3.73;;
47429;SDS011;33181;49.246;7.372;2023-04-03T13:26:16;6.77;;;3.30;;
47429;SDS011;33181;49.246;7.372;2023-04-03T13:28:45;4.90;;;3.33;;
47429;SDS011;33181;49.246;7.372;2023-04-03T13:33:39;4.20;;;3.63;;
47429;SDS011;33181;49.246;7.372;2023-04-03T13:36:23;3.80;;;3.30;;
47429;SDS011;33181;49.246;7.372;2023-04-03T13:39:00;4.40;;;3.50;;
47429;SDS011;33181;49.246;7.372;2023-04-03T13:41:49;4.67;;;3.50;;
47429;SDS011;33181;49.246;7.372;2023-04-03T13:46:48;4.83;;;3.60;;
47429;SDS011;33181;49.246;7.372;2023-04-03T13:49:20;6.47;;;3.60;;
47429;SDS011;33181;49.246;7.372;2023-04-03T13:52:01;4.37;;;3.10;;
47429;SDS011;33181;49.246;7.372;2023-04-03T13:54:55;5.73;;;3.77;;
47429;SDS011;33181;49.246;7.372;2023-04-03T13:57:25;5.13;;;3.50;;
47429;SDS011;33181;49.246;7.372;2023-04-03T13:59:52;6.30;;;3.70;;
47429;SDS011;33181;49.246;7.372;2023-04-03T14:02:22;5.20;;;3.87;;
47429;SDS011;33181;49.246;7.372;2023-04-03T14:04:57;7.20;;;3.70;;
47429;SDS011;33181;49.246;7.372;2023-04-03T14:07:26;3.80;;;3.30;;
47429;SDS011;33181;49.246;7.372;2023-04-03T14:09:55;6.93;;;3.63;;
47429;SDS011;33181;49.246;7.372;2023-04-03T14:15:01;5.20;;;3.67;;
47429;SDS011;33181;49.246;7.372;2023-04-03T14:17:30;7.17;;;3.60;;
47429;SDS011;33181;49.246;7.372;2023-04-03T14:19:57;6.00;;;3.73;;
47429;SDS011;33181;49.246;7.372;2023-04-03T14:22:24;5.40;;;3.50;;
47429;SDS011;33181;49.246;7.372;2023-04-03T14:24:54;4.40;;;3.50;;
47429;SDS011;33181;49.246;7.372;2023-04-03T14:27:25;4.57;;;3.60;;
47429;SDS011;33181;49.246;7.372;2023-04-03T14:29:55;5.20;;;3.50;;
47429;SDS011;33181;49.246;7.372;2023-04-03T14:32:24;7.07;;;3.67;;
47429;SDS011;33181;49.246;7.372;2023-04-03T14:34:51;4.50;;;3.63;;
47429;SDS011;33181;49.246;7.372;2023-04-03T14:37:19;6.03;;;3.70;;
47429;SDS011;33181;49.246;7.372;2023-04-03T14:39:49;4.40;;;3.80;;
47429;SDS011;33181;49.246;7.372;2023-04-03T14:42:19;9.10;;;3.90;;
47429;SDS011;33181;49.246;7.372;2023-04-03T14:44:50;8.37;;;3.80;;
47429;SDS011;33181;49.246;7.372;2023-04-03T14:47:21;7.17;;;3.87;;
47429;SDS011;33181;49.246;7.372;2023-04-03T14:49:52;4.90;;;3.00;;
47429;SDS011;33181;49.246;7.372;2023-04-03T14:52:20;5.53;;;3.53;;
47429;SDS011;33181;49.246;7.372;2023-04-03T14:55:00;6.07;;;3.47;;
47429;SDS011;33181;49.246;7.372;2023-04-03T14:57:30;5.13;;;3.50;;
47429;SDS011;33181;49.246;7.372;2023-04-03T14:59:57;4.73;;;3.23;;
47429;SDS011;33181;49.246;7.372;2023-04-03T15:02:36;4.33;;;3.60;;
47429;SDS011;33181;49.246;7.372;2023-04-03T15:05:04;4.60;;;3.27;;
47429;SDS011;33181;49.246;7.372;2023-04-03T15:07:37;4.50;;;3.63;;
47429;SDS011;33181;49.246;7.372;2023-04-03T15:10:20;3.67;;;3.23;;
47429;SDS011;33181;49.246;7.372;2023-04-03T15:12:50;6.00;;;3.50;;
47429;SDS011;33181;49.246;7.372;2023-04-03T15:15:17;5.17;;;3.23;;
47429;SDS011;33181;49.246;7.372;2023-04-03T15:17:45;4.53;;;3.40;;
47429;SDS011;33181;49.246;7.372;2023-04-03T15:20:23;4.60;;;3.40;;
47429;SDS011;33181;49.246;7.372;2023-04-03T15:22:52;4.00;;;3.60;;
47429;SDS011;33181;49.246;7.372;2023-04-03T15:25:21;7.20;;;3.97;;
47429;SDS011;33181;49.246;7.372;2023-04-03T15:27:46;7.23;;;4.10;;
47429;SDS011;33181;49.246;7.372;2023-04-03T15:30:14;5.13;;;3.70;;
47429;SDS011;33181;49.246;7.372;2023-04-03T15:32:43;4.20;;;3.30;;
47429;SDS011;33181;49.246;7.372;2023-04-03T15:35:09;5.20;;;3.37;;
47429;SDS011;33181;49.246;7.372;2023-04-03T15:37:35;4.53;;;3.60;;
47429;SDS011;33181;49.246;7.372;2023-04-03T15:40:02;5.67;;;3.87;;
47429;SDS011;33181;49.246;7.372;2023-04-03T15:42:30;6.10;;;4.00;;
47429;SDS011;33181;49.246;7.372;2023-04-03T15:44:55;4.50;;;3.27;;
47429;SDS011;33181;49.246;7.372;2023-04-03T15:47:21;5.03;;;3.40;;
47429;SDS011;33181;49.246;7.372;2023-04-03T15:50:00;4.00;;;3.30;;
47429;SDS011;33181;49.246;7.372;2023-04-03T15:52:32;3.90;;;2.90;;
47429;SDS011;33181;49.246;7.372;2023-04-03T15:54:58;5.17;;;3.43;;
47429;SDS011;33181;49.246;7.372;2023-04-03T15:57:24;3.23;;;2.93;;
47429;SDS011;33181;49.246;7.372;2023-04-03T15:59:51;4.07;;;3.23;;
47429;SDS011;33181;49.246;7.372;2023-04-03T16:02:19;3.97;;;3.00;;
47429;SDS011;33181;49.246;7.372;2023-04-03T16:04:46;5.03;;;3.20;;
47429;SDS011;33181;49.246;7.372;2023-04-03T16:07:12;6.50;;;4.07;;
47429;SDS011;33181;49.246;7.372;2023-04-03T16:09:38;3.93;;;3.10;;
47429;SDS011;33181;49.246;7.372;2023-04-03T16:12:04;4.20;;;3.10;;
47429;SDS011;33181;49.246;7.372;2023-04-03T16:14:29;5.47;;;3.40;;
47429;SDS011;33181;49.246;7.372;2023-04-03T16:16:56;3.63;;;3.20;;
47429;SDS011;33181;49.246;7.372;2023-04-03T16:19:24;4.67;;;3.33;;
47429;SDS011;33181;49.246;7.372;2023-04-03T16:21:50;4.97;;;3.27;;
47429;SDS011;33181;49.246;7.372;2023-04-03T16:24:17;4.97;;;3.43;;
47429;SDS011;33181;49.246;7.372;2023-04-03T16:26:43;4.63;;;3.30;;
47429;SDS011;33181;49.246;7.372;2023-04-03T16:29:09;5.10;;;3.50;;
47429;SDS011;33181;49.246;7.372;2023-04-03T16:31:34;5.90;;;3.50;;
47429;SDS011;33181;49.246;7.372;2023-04-03T16:34:01;5.50;;;3.80;;
47429;SDS011;33181;49.246;7.372;2023-04-03T16:36:27;5.07;;;3.43;;
47429;SDS011;33181;49.246;7.372;2023-04-03T16:38:56;6.60;;;3.70;;
47429;SDS011;33181;49.246;7.372;2023-04-03T16:41:22;6.43;;;3.80;;
47429;SDS011;33181;49.246;7.372;2023-04-03T16:43:47;4.40;;;3.57;;
47429;SDS011;33181;49.246;7.372;2023-04-03T16:46:14;5.77;;;4.27;;
47429;SDS011;33181;49.246;7.372;2023-04-03T16:48:40;6.03;;;3.90;;
47429;SDS011;33181;49.246;7.372;2023-04-03T16:51:06;5.23;;;3.33;;
47429;SDS011;33181;49.246;7.372;2023-04-03T16:53:32;6.70;;;3.50;;
47429;SDS011;33181;49.246;7.372;2023-04-03T16:55:58;7.87;;;4.10;;
47429;SDS011;33181;49.246;7.372;2023-04-03T16:58:24;5.33;;;3.87;;
47429;SDS011;33181;49.246;7.372;2023-04-03T17:00:50;6.60;;;4.27;;
47429;SDS011;33181;49.246;7.372;2023-04-03T17:03:18;8.83;;;4.27;;